Time;durP1;ratioP1;P1;durP2;ratioP2;P2;SDS_P1;SDS_P2;PMS_P1;PMS_P2;Temp;Humidity;BMP_temperature;BMP_pressure;BME280_temperature;BME280_humidity;BME280_pressure;Samples;Min_cycle;Max_cycle;Signal;HPM_P1;HPM_P2
2021/09/07 00:01:35;;;;;;;13.27;11.90;;;16.60;99.90;;;;;;4976327;28;20263;-65
2021/09/07 00:04:01;;;;;;;13.00;11.80;;;16.50;99.90;;;;;;4976433;28;20180;-65
2021/09/07 00:06:26;;;;;;;13.10;11.80;;;16.40;99.90;;;;;;4976371;28;20184;-64
2021/09/07 00:08:52;;;;;;;12.60;11.50;;;16.30;99.90;;;;;;4982643;28;20685;-64
2021/09/07 00:11:18;;;;;;;12.67;11.57;;;16.30;99.90;;;;;;4995164;28;20171;-64
2021/09/07 00:13:44;;;;;;;13.50;12.10;;;16.40;99.90;;;;;;4995664;28;20422;-64
2021/09/07 00:16:10;;;;;;;12.67;11.57;;;16.30;99.90;;;;;;4995627;28;20212;-64
2021/09/07 00:18:36;;;;;;;13.20;11.03;;;16.30;99.90;;;;;;4995176;28;20545;-64
2021/09/07 00:21:01;;;;;;;14.33;13.03;;;16.30;99.90;;;;;;4995459;28;20868;-64
2021/09/07 00:23:27;;;;;;;14.13;12.37;;;16.20;99.90;;;;;;4995551;28;20649;-64
2021/09/07 00:25:53;;;;;;;17.90;12.70;;;16.10;99.90;;;;;;4995482;28;20257;-64
2021/09/07 00:28:18;;;;;;;13.37;12.07;;;16.10;99.90;;;;;;4995230;28;20678;-64
2021/09/07 00:30:44;;;;;;;14.87;13.43;;;16.10;99.90;;;;;;4995260;28;20421;-64
2021/09/07 00:33:10;;;;;;;13.83;12.50;;;16.10;99.90;;;;;;4993089;28;20207;-64
2021/09/07 00:35:36;;;;;;;17.27;13.57;;;16.00;99.90;;;;;;4975906;28;20474;-64
2021/09/07 00:38:01;;;;;;;16.67;13.53;;;16.00;99.90;;;;;;4988864;28;20203;-64
2021/09/07 00:40:27;;;;;;;15.47;12.70;;;16.00;99.90;;;;;;4994959;28;20578;-64
2021/09/07 00:42:52;;;;;;;13.43;11.23;;;16.00;99.90;;;;;;4995049;28;20179;-64
2021/09/07 00:45:18;;;;;;;14.37;13.07;;;16.00;99.90;;;;;;4995161;28;20804;-64
2021/09/07 00:47:44;;;;;;;14.60;13.10;;;16.00;99.90;;;;;;4994981;28;20254;-64
2021/09/07 00:50:10;;;;;;;12.90;11.60;;;16.00;99.90;;;;;;4981566;28;20180;-65
2021/09/07 00:52:37;;;;;;;13.50;12.23;;;15.90;99.90;;;;;;4975423;28;20263;-64
2021/09/07 00:55:03;;;;;;;13.30;12.20;;;15.90;99.90;;;;;;4975546;28;20431;-64
2021/09/07 00:57:31;;;;;;;15.37;13.77;;;15.80;99.90;;;;;;4975759;28;20435;-64
2021/09/07 00:59:56;;;;;;;13.87;12.37;;;15.70;99.90;;;;;;4975152;28;20515;-64
2021/09/07 01:02:22;;;;;;;13.53;12.33;;;15.70;99.90;;;;;;4975425;28;20506;-64
2021/09/07 01:04:48;;;;;;;15.57;13.73;;;15.70;99.90;;;;;;4974994;28;20553;-64
2021/09/07 01:07:14;;;;;;;14.20;12.90;;;15.80;99.90;;;;;;4994646;28;20633;-64
2021/09/07 01:09:40;;;;;;;22.00;15.17;;;15.80;99.90;;;;;;4994378;28;20415;-64
2021/09/07 01:12:07;;;;;;;16.40;14.13;;;15.70;99.90;;;;;;4994568;28;20202;-64
2021/09/07 01:14:37;;;;;;;17.73;14.57;;;15.70;99.90;;;;;;4994656;28;20427;-64
2021/09/07 01:17:09;;;;;;;17.83;15.63;;;15.80;99.90;;;;;;4994352;28;20442;-64
2021/09/07 01:19:34;;;;;;;18.27;16.30;;;15.70;99.90;;;;;;4994515;28;20502;-65
2021/09/07 01:22:00;;;;;;;24.00;16.50;;;15.60;99.90;;;;;;4993748;28;20831;-65
2021/09/07 01:24:27;;;;;;;17.27;15.57;;;15.50;99.90;;;;;;4994319;28;20223;-64
2021/09/07 01:26:53;;;;;;;16.40;14.70;;;15.50;99.90;;;;;;4994300;28;20805;-64
2021/09/07 01:29:19;;;;;;;15.20;13.60;;;15.50;99.90;;;;;;4993568;28;20461;-65
2021/09/07 01:31:45;;;;;;;15.63;13.43;;;15.50;99.90;;;;;;4994276;28;20498;-64
2021/09/07 01:34:19;;;;;;;15.30;13.80;;;15.40;99.90;;;;;;4984592;28;20185;-64
2021/09/07 01:36:45;;;;;;;12.97;11.67;;;15.50;99.90;;;;;;4975697;28;20318;-64
2021/09/07 01:39:11;;;;;;;15.13;13.57;;;15.50;99.90;;;;;;4974249;28;20510;-64
2021/09/07 01:41:36;;;;;;;14.40;12.90;;;15.40;99.90;;;;;;4974640;28;20913;-64
2021/09/07 01:44:02;;;;;;;15.00;13.50;;;15.40;99.90;;;;;;4974564;28;20650;-65
2021/09/07 01:46:27;;;;;;;14.20;12.80;;;15.40;99.90;;;;;;4983435;28;20215;-64
2021/09/07 01:48:53;;;;;;;13.53;12.30;;;15.40;99.90;;;;;;4993640;28;20701;-64
2021/09/07 01:51:18;;;;;;;13.97;12.57;;;15.30;99.90;;;;;;4994323;28;20262;-64
2021/09/07 01:53:44;;;;;;;13.30;12.00;;;15.30;99.90;;;;;;4993525;28;20234;-64
2021/09/07 01:56:09;;;;;;;13.63;12.23;;;15.30;99.90;;;;;;4993776;28;20213;-64
2021/09/07 01:58:35;;;;;;;13.80;12.53;;;15.20;99.90;;;;;;4993483;28;20200;-64
2021/09/07 02:01:01;;;;;;;13.97;12.57;;;15.20;99.90;;;;;;4982961;28;20190;-64
2021/09/07 02:03:26;;;;;;;14.10;12.70;;;15.30;99.90;;;;;;4974290;28;20315;-64
2021/09/07 02:05:52;;;;;;;13.63;12.27;;;15.20;99.90;;;;;;4974145;28;20208;-64
2021/09/07 02:08:17;;;;;;;12.90;11.60;;;15.20;99.90;;;;;;4973883;28;20196;-64
2021/09/07 02:10:43;;;;;;;13.50;12.27;;;15.20;99.90;;;;;;4974000;28;20180;-64
2021/09/07 02:13:08;;;;;;;14.30;12.90;;;15.20;99.90;;;;;;4974031;28;20173;-64
2021/09/07 02:15:34;;;;;;;13.73;12.53;;;15.10;99.90;;;;;;4988529;28;20187;-64
2021/09/07 02:17:59;;;;;;;14.60;13.30;;;15.20;99.90;;;;;;4993247;28;20696;-64
2021/09/07 02:20:25;;;;;;;14.03;12.70;;;15.10;99.90;;;;;;4992976;28;20191;-64
2021/09/07 02:22:51;;;;;;;13.47;12.07;;;15.20;99.90;;;;;;4983230;28;20265;-64
2021/09/07 02:25:16;;;;;;;14.47;13.17;;;15.20;99.90;;;;;;4973764;28;20212;-64
2021/09/07 02:27:42;;;;;;;13.13;11.77;;;15.10;99.90;;;;;;4973664;28;20192;-64
2021/09/07 02:30:08;;;;;;;15.83;12.90;;;15.00;99.90;;;;;;4973455;28;20231;-64
2021/09/07 02:32:34;;;;;;;13.57;12.17;;;15.10;99.90;;;;;;4973657;28;20179;-64
2021/09/07 02:34:59;;;;;;;12.33;11.20;;;15.10;99.90;;;;;;4973664;28;20624;-64
2021/09/07 02:37:25;;;;;;;12.53;11.33;;;15.00;99.90;;;;;;4973470;28;20237;-64
2021/09/07 02:39:50;;;;;;;12.33;11.13;;;14.90;99.90;;;;;;4973291;28;20176;-64
2021/09/07 02:42:16;;;;;;;14.17;12.13;;;15.00;99.90;;;;;;4973581;28;20185;-64
2021/09/07 02:44:41;;;;;;;15.13;13.53;;;15.00;99.90;;;;;;4973446;28;20593;-64
2021/09/07 02:47:07;;;;;;;13.67;12.37;;;15.00;99.90;;;;;;4989780;28;20549;-64
2021/09/07 02:49:33;;;;;;;14.03;12.70;;;14.90;99.90;;;;;;4992573;28;20186;-64
2021/09/07 02:51:58;;;;;;;13.90;12.40;;;14.90;99.90;;;;;;4991191;28;20204;-64
2021/09/07 02:54:25;;;;;;;14.20;12.80;;;14.80;99.90;;;;;;4992859;28;20625;-64
2021/09/07 02:56:50;;;;;;;15.30;12.10;;;14.80;99.90;;;;;;4992866;28;20167;-65
2021/09/07 02:59:16;;;;;;;15.00;13.70;;;14.80;99.90;;;;;;4992385;28;20914;-64
2021/09/07 03:01:42;;;;;;;15.63;14.27;;;14.70;99.90;;;;;;4992748;28;20267;-64
2021/09/07 03:04:07;;;;;;;14.80;13.20;;;14.70;99.90;;;;;;4993067;28;20210;-65
2021/09/07 03:06:33;;;;;;;16.20;13.50;;;14.70;99.90;;;;;;4992648;28;20188;-64
2021/09/07 03:08:58;;;;;;;14.30;12.90;;;14.70;99.90;;;;;;4992272;28;20693;-64
2021/09/07 03:11:24;;;;;;;13.43;12.17;;;14.70;99.90;;;;;;4992711;28;20539;-64
2021/09/07 03:13:50;;;;;;;14.67;13.27;;;14.50;99.90;;;;;;4992260;28;20175;-64
2021/09/07 03:16:15;;;;;;;14.20;12.80;;;14.50;99.90;;;;;;4992563;28;20202;-64
2021/09/07 03:18:41;;;;;;;14.80;13.30;;;14.50;99.90;;;;;;4992085;28;20206;-65
2021/09/07 03:21:06;;;;;;;15.30;13.80;;;14.60;99.90;;;;;;4989109;28;20187;-64
2021/09/07 03:23:32;;;;;;;13.20;12.00;;;14.60;99.90;;;;;;4992470;28;20688;-65
2021/09/07 03:25:57;;;;;;;14.70;13.20;;;14.50;99.90;;;;;;4992479;28;20199;-64
2021/09/07 03:28:23;;;;;;;14.50;13.00;;;14.40;99.90;;;;;;4995199;28;20194;-64
2021/09/07 03:30:48;;;;;;;18.03;13.27;;;14.40;99.90;;;;;;4996399;28;20254;-64
2021/09/07 03:33:14;;;;;;;16.03;14.20;;;14.40;99.90;;;;;;4996438;28;20167;-64
2021/09/07 03:35:39;;;;;;;15.50;14.00;;;14.40;99.90;;;;;;4996414;28;20246;-64
2021/09/07 03:38:05;;;;;;;14.03;12.57;;;14.30;99.90;;;;;;4995493;28;20262;-64
2021/09/07 03:40:30;;;;;;;14.97;13.40;;;14.30;99.90;;;;;;4996062;28;20176;-64
2021/09/07 03:42:56;;;;;;;14.67;12.93;;;14.40;99.90;;;;;;4996307;28;20183;-64
2021/09/07 03:45:22;;;;;;;14.50;13.10;;;14.40;99.90;;;;;;4996121;28;20203;-64
2021/09/07 03:47:47;;;;;;;15.50;13.90;;;14.40;99.90;;;;;;4994515;28;20692;-64
2021/09/07 03:50:15;;;;;;;14.90;13.40;;;14.40;99.90;;;;;;4995843;28;20172;-64
2021/09/07 03:52:40;;;;;;;15.80;14.07;;;14.40;99.90;;;;;;4996000;28;20172;-65
2021/09/07 03:55:07;;;;;;;15.53;13.70;;;14.30;99.90;;;;;;4996066;28;20414;-64
2021/09/07 03:57:32;;;;;;;15.23;13.73;;;14.30;99.90;;;;;;4995949;28;20187;-64
2021/09/07 03:59:58;;;;;;;14.17;12.77;;;14.30;99.90;;;;;;4995629;28;20454;-64
2021/09/07 04:02:24;;;;;;;15.90;14.30;;;14.30;99.90;;;;;;4995947;28;20176;-64
2021/09/07 04:04:50;;;;;;;14.10;12.80;;;14.30;99.90;;;;;;4995813;28;20195;-64
2021/09/07 04:07:16;;;;;;;13.63;12.23;;;14.30;99.90;;;;;;4995620;28;20468;-64
2021/09/07 04:09:41;;;;;;;17.03;15.43;;;14.30;99.90;;;;;;4995554;28;20414;-64
2021/09/07 04:12:07;;;;;;;16.43;14.93;;;14.30;99.90;;;;;;4995806;28;20172;-64
2021/09/07 04:14:32;;;;;;;15.03;13.17;;;14.30;99.90;;;;;;4984908;28;20187;-64
2021/09/07 04:16:58;;;;;;;16.10;14.23;;;14.30;99.90;;;;;;4975983;28;20572;-64
2021/09/07 04:19:24;;;;;;;15.43;13.90;;;14.20;99.90;;;;;;4977295;28;20665;-64
2021/09/07 04:21:49;;;;;;;21.37;15.43;;;14.20;99.90;;;;;;4995474;28;20664;-64
2021/09/07 04:24:15;;;;;;;14.87;13.37;;;14.20;99.90;;;;;;4995528;28;20176;-65
2021/09/07 04:26:40;;;;;;;16.07;14.43;;;14.20;99.90;;;;;;4995478;28;20589;-64
2021/09/07 04:29:06;;;;;;;14.63;13.10;;;14.20;99.90;;;;;;4995103;28;20621;-64
2021/09/07 04:31:32;;;;;;;14.40;12.90;;;14.20;99.90;;;;;;4982227;28;20180;-65
2021/09/07 04:33:58;;;;;;;20.83;15.83;;;14.20;99.90;;;;;;4976008;28;20520;-64
2021/09/07 04:36:23;;;;;;;17.43;15.63;;;14.20;99.90;;;;;;4975755;28;20548;-65
2021/09/07 04:38:49;;;;;;;18.43;16.63;;;14.30;99.90;;;;;;4974044;28;20456;-65
2021/09/07 04:41:14;;;;;;;17.30;15.50;;;14.30;99.90;;;;;;4975826;28;20587;-65
2021/09/07 04:43:40;;;;;;;16.87;14.47;;;14.30;99.90;;;;;;4992111;28;20179;-64
2021/09/07 04:46:05;;;;;;;17.27;15.50;;;14.30;99.90;;;;;;4994977;28;20246;-65
2021/09/07 04:48:31;;;;;;;17.90;16.20;;;14.10;99.90;;;;;;4994723;28;20220;-64
2021/09/07 04:50:56;;;;;;;20.00;15.67;;;14.10;99.90;;;;;;4991594;28;20195;-65
2021/09/07 04:53:22;;;;;;;17.83;16.03;;;14.10;99.90;;;;;;4975766;28;20172;-64
2021/09/07 04:55:48;;;;;;;16.97;15.27;;;14.10;99.90;;;;;;4975592;28;20180;-65
2021/09/07 04:58:13;;;;;;;16.50;14.70;;;14.10;99.90;;;;;;4975342;28;20279;-64
2021/09/07 05:00:39;;;;;;;15.10;13.50;;;14.10;99.90;;;;;;4975218;28;20179;-65
2021/09/07 05:03:05;;;;;;;16.20;14.50;;;14.10;99.90;;;;;;4975468;28;20184;-64
2021/09/07 05:05:30;;;;;;;17.50;15.50;;;14.10;99.90;;;;;;4975170;28;20208;-64
2021/09/07 05:07:58;;;;;;;16.40;14.80;;;14.20;99.90;;;;;;4975257;28;20719;-64
2021/09/07 05:10:24;;;;;;;19.27;15.57;;;14.20;99.90;;;;;;4975049;28;20168;-64
2021/09/07 05:12:50;;;;;;;18.50;16.60;;;14.30;99.90;;;;;;4980270;28;20937;-65
2021/09/07 05:15:15;;;;;;;17.20;15.07;;;14.10;99.90;;;;;;4985114;28;20427;-64
2021/09/07 05:17:41;;;;;;;16.37;14.70;;;14.10;99.90;;;;;;4994306;28;20214;-64
2021/09/07 05:20:07;;;;;;;18.17;16.13;;;14.20;99.90;;;;;;4984037;28;20242;-65
2021/09/07 05:22:33;;;;;;;17.40;15.37;;;14.30;99.90;;;;;;4994713;28;20194;-65
2021/09/07 05:24:58;;;;;;;16.43;14.67;;;14.40;99.90;;;;;;4994355;28;20553;-65
2021/09/07 05:27:24;;;;;;;16.23;14.57;;;14.40;99.90;;;;;;4994633;28;20192;-65
2021/09/07 05:29:49;;;;;;;15.93;14.27;;;14.60;99.90;;;;;;4993977;28;20175;-64
2021/09/07 05:32:15;;;;;;;17.70;15.00;;;14.70;99.90;;;;;;4994313;28;20180;-65
2021/09/07 05:34:40;;;;;;;15.23;13.63;;;14.80;99.90;;;;;;4994166;28;20244;-64
2021/09/07 05:37:06;;;;;;;18.33;14.70;;;14.90;99.90;;;;;;4994377;28;20191;-65
2021/09/07 05:39:31;;;;;;;14.73;13.23;;;14.90;99.90;;;;;;4993851;28;20267;-65
2021/09/07 05:41:57;;;;;;;16.53;14.97;;;15.00;99.90;;;;;;4994069;28;20402;-65
2021/09/07 05:44:23;;;;;;;16.20;14.50;;;15.10;99.90;;;;;;4993638;28;20183;-65
2021/09/07 05:46:49;;;;;;;17.67;14.17;;;15.10;99.90;;;;;;4993858;28;20183;-64
2021/09/07 05:49:14;;;;;;;15.67;13.97;;;15.20;99.90;;;;;;4993903;28;20199;-64
2021/09/07 05:51:44;;;;;;;17.00;14.33;;;15.40;99.90;;;;;;4993534;28;20423;-65
2021/09/07 05:54:10;;;;;;;16.50;13.83;;;15.40;99.90;;;;;;4993896;28;20191;-64
2021/09/07 05:56:36;;;;;;;19.57;14.17;;;15.50;99.90;;;;;;4982964;28;20501;-65
2021/09/07 05:59:01;;;;;;;17.37;14.80;;;15.50;99.90;;;;;;4988654;28;20208;-65
2021/09/07 06:01:27;;;;;;;16.07;14.43;;;15.50;99.90;;;;;;4984326;28;20184;-65
2021/09/07 06:03:52;;;;;;;16.50;14.60;;;15.60;99.90;;;;;;4974181;28;20525;-65
2021/09/07 06:06:18;;;;;;;14.63;13.20;;;15.70;99.90;;;;;;4989725;28;20231;-64
2021/09/07 06:08:43;;;;;;;16.33;14.70;;;15.80;99.90;;;;;;4992953;28;20653;-64
2021/09/07 06:11:09;;;;;;;18.73;15.57;;;15.90;99.90;;;;;;4993492;28;20186;-65
2021/09/07 06:13:35;;;;;;;14.90;13.60;;;16.00;99.90;;;;;;4993525;28;20175;-64
2021/09/07 06:16:01;;;;;;;17.93;15.10;;;16.20;99.90;;;;;;4993315;28;20430;-65
2021/09/07 06:18:27;;;;;;;18.80;15.10;;;16.20;99.90;;;;;;4992457;28;20223;-65
2021/09/07 06:20:54;;;;;;;20.93;15.13;;;16.10;99.90;;;;;;4992963;28;20454;-65
2021/09/07 06:23:20;;;;;;;17.67;15.97;;;16.20;99.90;;;;;;4993134;28;20443;-65
2021/09/07 06:25:45;;;;;;;18.80;16.90;;;16.00;99.90;;;;;;4992684;28;20484;-65
2021/09/07 06:28:11;;;;;;;18.63;16.73;;;16.00;99.90;;;;;;4979555;28;20204;-65
2021/09/07 06:30:36;;;;;;;17.93;15.40;;;15.90;99.90;;;;;;4974478;28;20549;-65
2021/09/07 06:33:02;;;;;;;20.33;18.03;;;16.00;99.90;;;;;;4973674;28;20172;-65
2021/09/07 06:35:27;;;;;;;18.93;16.43;;;16.10;99.90;;;;;;4975691;28;20268;-63
2021/09/07 06:37:54;;;;;;;18.60;16.80;;;16.20;99.90;;;;;;4985850;28;20204;-63
2021/09/07 06:40:20;;;;;;;23.53;17.87;;;16.20;99.90;;;;;;4983972;28;20183;-63
2021/09/07 06:42:46;;;;;;;19.03;17.23;;;16.10;99.90;;;;;;4989335;28;20427;-63
2021/09/07 06:45:11;;;;;;;22.53;17.93;;;16.10;99.90;;;;;;4990191;28;20459;-63
2021/09/07 06:47:37;;;;;;;17.67;15.83;;;16.10;99.90;;;;;;4973343;28;20619;-64
2021/09/07 06:50:05;;;;;;;22.87;17.07;;;16.30;99.90;;;;;;4984357;28;20275;-64
2021/09/07 06:52:30;;;;;;;18.30;16.50;;;16.40;99.90;;;;;;4992823;28;20187;-63
2021/09/07 06:54:56;;;;;;;18.80;16.93;;;16.80;99.90;;;;;;4992546;28;20423;-64
2021/09/07 06:57:22;;;;;;;19.37;17.33;;;17.20;99.90;;;;;;4990648;28;20580;-65
2021/09/07 06:59:48;;;;;;;19.00;17.10;;;17.40;99.90;;;;;;4989558;28;20273;-65
2021/09/07 07:02:13;;;;;;;16.63;14.93;;;17.70;99.90;;;;;;4983650;28;20941;-65
2021/09/07 07:04:39;;;;;;;19.40;17.10;;;18.20;99.90;;;;;;4992522;28;20234;-65
2021/09/07 07:07:04;;;;;;;20.03;17.70;;;18.60;99.90;;;;;;4991719;28;20179;-65
2021/09/07 07:09:30;;;;;;;18.43;15.50;;;18.90;99.90;;;;;;4993465;28;20171;-65
2021/09/07 07:11:55;;;;;;;21.03;17.23;;;19.10;99.90;;;;;;4992191;28;20638;-65
2021/09/07 07:14:21;;;;;;;22.87;18.87;;;19.40;99.90;;;;;;4982722;28;20195;-65
2021/09/07 07:16:50;;;;;;;18.67;16.87;;;19.60;99.90;;;;;;4977500;28;20176;-66
2021/09/07 07:19:16;;;;;;;17.80;15.93;;;19.70;99.90;;;;;;4981803;28;20462;-65
2021/09/07 07:21:42;;;;;;;17.67;15.57;;;19.90;99.90;;;;;;4987455;28;20957;-66
2021/09/07 07:24:08;;;;;;;19.00;16.93;;;20.20;99.90;;;;;;4982103;28;20255;-66
2021/09/07 07:26:33;;;;;;;18.47;16.70;;;20.50;99.90;;;;;;4975389;28;20664;-65
2021/09/07 07:28:59;;;;;;;22.13;16.20;;;20.80;99.90;;;;;;4960989;28;20623;-65
2021/09/07 07:31:24;;;;;;;18.70;16.90;;;21.10;99.90;;;;;;4985562;28;20215;-65
2021/09/07 07:33:50;;;;;;;15.80;14.30;;;21.20;99.90;;;;;;4977578;28;20216;-66
2021/09/07 07:36:16;;;;;;;17.33;15.60;;;21.20;99.90;;;;;;4984281;28;20180;-65
2021/09/07 07:38:41;;;;;;;22.10;15.87;;;21.20;99.90;;;;;;4992116;28;20207;-65
2021/09/07 07:41:07;;;;;;;16.77;14.73;;;21.30;99.90;;;;;;4980722;28;20206;-66
2021/09/07 07:43:36;;;;;;;22.30;18.80;;;21.20;99.90;;;;;;4987277;28;20189;-65
2021/09/07 07:46:02;;;;;;;17.27;15.63;;;21.30;99.90;;;;;;4987693;28;20211;-65
2021/09/07 07:48:28;;;;;;;17.43;15.70;;;21.40;99.90;;;;;;4977891;28;20520;-65
2021/09/07 07:50:53;;;;;;;17.87;14.83;;;21.90;99.90;;;;;;4983409;28;20530;-65
2021/09/07 07:53:19;;;;;;;17.00;15.00;;;22.60;99.90;;;;;;4991822;28;20230;-66
2021/09/07 07:55:44;;;;;;;16.40;14.60;;;23.00;99.90;;;;;;4990720;28;20515;-66
2021/09/07 07:58:10;;;;;;;18.40;15.10;;;23.40;99.90;;;;;;4985549;28;20204;-66
2021/09/07 08:00:36;;;;;;;14.40;12.90;;;23.50;99.90;;;;;;4975138;28;20226;-65
2021/09/07 08:03:01;;;;;;;15.67;14.17;;;23.40;99.90;;;;;;4992250;28;20176;-66
2021/09/07 08:05:26;;;;;;;17.33;13.60;;;23.40;99.90;;;;;;4987632;28;20210;-66
2021/09/07 08:07:52;;;;;;;13.93;12.73;;;23.80;99.90;;;;;;4986513;28;20192;-65
2021/09/07 08:10:17;;;;;;;13.50;12.10;;;24.40;99.90;;;;;;4991443;28;20589;-65
2021/09/07 08:12:44;;;;;;;14.10;12.70;;;24.90;99.90;;;;;;4992376;28;20172;-66
2021/09/07 08:15:10;;;;;;;13.93;12.57;;;24.90;99.90;;;;;;4994251;28;20206;-66
2021/09/07 08:17:36;;;;;;;12.73;11.63;;;24.90;99.90;;;;;;4994742;28;20490;-66
2021/09/07 08:20:02;;;;;;;10.87;9.93;;;25.00;99.90;;;;;;4989752;28;20485;-65
2021/09/07 08:22:27;;;;;;;12.67;11.33;;;24.30;99.90;;;;;;4995419;28;20180;-65
2021/09/07 08:24:53;;;;;;;11.83;10.80;;;23.90;99.90;;;;;;4995130;28;20454;-65
2021/09/07 08:27:18;;;;;;;11.43;10.43;;;24.30;99.90;;;;;;4995534;28;20249;-65
2021/09/07 08:29:44;;;;;;;12.77;11.63;;;24.80;99.90;;;;;;4988209;28;20180;-65
2021/09/07 08:32:09;;;;;;;12.43;10.30;;;24.30;99.90;;;;;;4975849;28;20173;-66
2021/09/07 08:34:35;;;;;;;10.73;9.63;;;24.80;99.90;;;;;;4976073;28;20736;-66
2021/09/07 08:37:02;;;;;;;12.37;9.70;;;25.40;99.90;;;;;;4978771;28;20203;-66
2021/09/07 08:39:27;;;;;;;9.60;8.67;;;25.80;99.70;;;;;;4995094;28;20163;-66
2021/09/07 08:41:53;;;;;;;11.07;9.53;;;26.10;98.60;;;;;;4984039;28;20813;-66
2021/09/07 08:44:19;;;;;;;13.60;10.00;;;26.10;97.20;;;;;;4975669;28;20175;-66
2021/09/07 08:46:45;;;;;;;10.90;9.80;;;26.40;96.10;;;;;;4975464;28;20206;-66
2021/09/07 08:49:13;;;;;;;9.80;9.00;;;26.10;96.60;;;;;;4975462;28;20533;-65
2021/09/07 08:51:38;;;;;;;10.47;9.37;;;26.50;95.90;;;;;;4981214;28;20426;-66
2021/09/07 08:54:04;;;;;;;10.10;9.10;;;27.00;93.90;;;;;;4989810;28;20827;-66
2021/09/07 08:56:29;;;;;;;9.70;8.90;;;27.60;92.30;;;;;;4979225;28;20709;-66
2021/09/07 08:58:55;;;;;;;10.73;9.83;;;27.00;90.70;;;;;;4982164;28;20292;-66
2021/09/07 09:01:21;;;;;;;9.20;8.43;;;27.10;90.90;;;;;;4977331;28;20188;-66
2021/09/07 09:03:47;;;;;;;11.87;10.77;;;28.20;89.90;;;;;;4975498;28;20596;-66
2021/09/07 09:06:22;;;;;;;10.30;9.40;;;29.00;86.40;;;;;;4975453;28;20196;-66
2021/09/07 09:08:48;;;;;;;10.63;9.63;;;29.80;83.50;;;;;;4989214;28;20834;-66
2021/09/07 09:11:14;;;;;;;11.60;9.60;;;29.40;76.50;;;;;;4993483;28;20433;-66
2021/09/07 09:13:47;;;;;;;9.27;8.47;;;29.30;77.00;;;;;;4994589;28;20171;-67
2021/09/07 09:16:14;;;;;;;10.33;9.40;;;29.20;75.70;;;;;;4993445;28;20179;-67
2021/09/07 09:18:43;;;;;;;9.67;8.80;;;30.20;74.60;;;;;;4986481;28;20467;-66
2021/09/07 09:21:30;;;;;;;9.70;8.90;;;30.70;72.80;;;;;;4993223;28;20521;-66
2021/09/07 09:24:14;;;;;;;11.47;10.30;;;30.70;71.10;;;;;;4994202;28;20423;-66
2021/09/07 09:27:03;;;;;;;10.20;9.20;;;31.20;70.30;;;;;;4989251;28;20883;-66
2021/09/07 09:29:34;;;;;;;14.00;9.67;;;32.00;66.60;;;;;;4993611;28;20440;-66
2021/09/07 09:32:05;;;;;;;11.10;10.17;;;32.60;64.90;;;;;;4980948;28;20979;-66
2021/09/07 09:34:33;;;;;;;10.60;9.57;;;32.60;63.30;;;;;;4975796;28;20436;-66
2021/09/07 09:37:10;;;;;;;10.33;9.53;;;32.40;61.80;;;;;;4979319;28;20442;-66
2021/09/07 09:39:39;;;;;;;10.63;9.60;;;33.00;62.80;;;;;;4993822;28;20434;-66
2021/09/07 09:42:06;;;;;;;11.50;9.57;;;33.80;60.10;;;;;;4994080;28;20481;-66
2021/09/07 09:44:31;;;;;;;11.73;10.70;;;34.00;58.70;;;;;;4985907;28;20435;-66
2021/09/07 09:46:57;;;;;;;10.87;9.77;;;33.30;58.40;;;;;;4981165;28;20431;-66
2021/09/07 09:49:26;;;;;;;10.90;9.80;;;32.60;58.50;;;;;;4992682;28;20203;-66
2021/09/07 09:51:59;;;;;;;10.10;9.17;;;32.10;58.50;;;;;;4985199;28;20183;-66
2021/09/07 09:54:25;;;;;;;10.80;9.77;;;31.80;59.00;;;;;;4994139;28;20434;-66
2021/09/07 09:56:51;;;;;;;10.20;9.30;;;32.50;58.30;;;;;;4993270;28;20426;-66
2021/09/07 09:59:18;;;;;;;10.00;9.20;;;33.30;56.10;;;;;;4977987;28;20200;-66
2021/09/07 10:01:43;;;;;;;10.77;9.87;;;33.80;54.50;;;;;;4987410;28;20167;-66
2021/09/07 10:04:11;;;;;;;9.93;8.73;;;33.60;53.00;;;;;;4993621;28;20781;-66
2021/09/07 10:06:37;;;;;;;10.10;9.40;;;33.80;53.80;;;;;;4992912;28;20604;-64
2021/09/07 10:09:03;;;;;;;10.20;9.30;;;33.90;52.60;;;;;;4993025;28;20443;-64
2021/09/07 10:11:31;;;;;;;9.43;8.73;;;34.30;53.10;;;;;;4993098;28;20172;-64
2021/09/07 10:14:00;;;;;;;10.17;9.27;;;35.80;50.70;;;;;;4993265;28;20422;-64
2021/09/07 10:16:51;;;;;;;10.87;9.83;;;35.90;49.40;;;;;;4982692;28;20457;-64
2021/09/07 10:19:45;;;;;;;8.67;8.03;;;36.40;48.90;;;;;;4982687;23;20480;-67
2021/09/07 10:24:58;;;;;;;10.00;9.33;;;36.50;48.20;;;;;;4935313;29;20829;-67
2021/09/07 10:28:03;;;;;;;9.73;8.83;;;37.30;45.80;;;;;;4960028;28;20456;-67
2021/09/07 10:31:02;;;;;;;10.07;9.27;;;37.70;45.30;;;;;;4948458;28;20919;-67
2021/09/07 10:33:32;;;;;;;9.07;8.37;;;37.20;44.80;;;;;;4933208;29;20437;-66
2021/09/07 10:36:06;;;;;;;9.40;8.60;;;37.40;43.30;;;;;;4935217;29;20457;-64
2021/09/07 10:38:50;;;;;;;10.37;9.30;;;37.20;44.10;;;;;;4948893;29;20452;-63
2021/09/07 10:41:34;;;;;;;9.73;8.83;;;37.80;42.50;;;;;;4945609;28;20440;-67
2021/09/07 10:44:04;;;;;;;9.23;8.53;;;35.80;44.90;;;;;;4935019;29;20840;-62
2021/09/07 10:46:57;;;;;;;10.10;9.33;;;35.70;43.70;;;;;;4937081;29;20893;-61
2021/09/07 10:49:40;;;;;;;9.77;9.07;;;35.60;43.20;;;;;;4938602;28;20453;-62
2021/09/07 10:52:08;;;;;;;10.50;9.60;;;35.20;44.40;;;;;;4925408;29;20931;-62
2021/09/07 10:54:44;;;;;;;9.53;8.50;;;36.40;44.00;;;;;;4934003;29;20513;-62
2021/09/07 10:57:36;;;;;;;8.30;7.70;;;37.40;42.00;;;;;;4932081;29;20467;-62
2021/09/07 11:00:17;;;;;;;8.63;8.00;;;38.70;41.20;;;;;;4932536;29;20445;-62
2021/09/07 11:02:43;;;;;;;8.77;8.07;;;39.70;39.00;;;;;;4934803;29;20533;-63
2021/09/07 11:05:12;;;;;;;10.33;9.53;;;39.50;38.20;;;;;;4930157;29;20529;-62
2021/09/07 11:07:42;;;;;;;9.37;8.70;;;39.40;38.00;;;;;;4914276;29;20461;-62
2021/09/07 11:10:16;;;;;;;8.47;7.97;;;39.50;37.70;;;;;;4951568;29;20448;-63
2021/09/07 11:13:05;;;;;;;9.10;8.40;;;39.90;38.00;;;;;;4933755;29;20778;-62
2021/09/07 11:15:33;;;;;;;9.50;8.80;;;39.60;37.20;;;;;;4920702;29;20443;-62
2021/09/07 11:18:12;;;;;;;8.83;8.33;;;38.60;37.20;;;;;;4932920;29;20516;-63
2021/09/07 11:20:43;;;;;;;9.03;8.43;;;36.90;37.20;;;;;;4945100;29;20435;-63
2021/09/07 11:23:16;;;;;;;8.50;7.90;;;34.70;40.10;;;;;;4950113;28;21186;-62
2021/09/07 11:25:50;;;;;;;10.50;9.70;;;35.50;40.20;;;;;;4938775;28;20519;-64
2021/09/07 11:28:17;;;;;;;8.27;7.67;;;34.90;40.90;;;;;;4934969;29;20444;-62
2021/09/07 11:30:48;;;;;;;8.93;8.20;;;35.60;40.40;;;;;;4932868;29;20449;-63
2021/09/07 11:33:16;;;;;;;9.23;8.40;;;36.50;39.00;;;;;;4935240;29;21261;-62
2021/09/07 11:35:53;;;;;;;9.23;8.03;;;37.60;38.10;;;;;;4940844;28;20833;-62
2021/09/07 11:38:29;;;;;;;8.77;8.17;;;37.90;37.70;;;;;;4934300;29;20457;-62
2021/09/07 11:41:01;;;;;;;8.70;8.10;;;36.80;35.90;;;;;;4937296;29;20536;-62
2021/09/07 11:43:38;;;;;;;9.00;8.30;;;37.60;37.60;;;;;;4936461;29;20482;-63
2021/09/07 11:46:08;;;;;;;9.47;8.87;;;37.50;37.10;;;;;;4915545;29;20660;-62
2021/09/07 11:48:34;;;;;;;9.57;8.83;;;37.40;37.20;;;;;;4928166;29;20813;-63
2021/09/07 11:51:00;;;;;;;9.40;8.70;;;35.80;38.90;;;;;;4937874;29;20927;-63
2021/09/07 11:53:25;;;;;;;9.30;8.60;;;35.50;37.80;;;;;;4940055;29;20433;-62
2021/09/07 11:55:53;;;;;;;9.30;8.60;;;35.50;38.90;;;;;;4941497;29;20548;-64
2021/09/07 11:58:34;;;;;;;9.40;8.70;;;36.30;38.20;;;;;;4937916;29;20216;-64
2021/09/07 12:01:09;;;;;;;8.57;7.87;;;37.90;38.10;;;;;;4938099;29;20421;-62
2021/09/07 12:03:37;;;;;;;8.73;8.03;;;38.70;36.20;;;;;;4941322;29;20415;-62
2021/09/07 12:06:05;;;;;;;8.80;8.10;;;38.70;35.80;;;;;;4956786;28;20456;-62
2021/09/07 12:08:36;;;;;;;7.73;7.23;;;38.50;35.50;;;;;;4956690;28;20881;-62
2021/09/07 12:11:03;;;;;;;9.10;8.50;;;39.10;35.80;;;;;;4942773;28;20773;-62
2021/09/07 12:13:28;;;;;;;11.70;10.73;;;38.90;35.20;;;;;;4940335;29;20439;-62
2021/09/07 12:15:54;;;;;;;8.70;8.10;;;38.90;35.60;;;;;;4954352;29;20421;-63
2021/09/07 12:18:28;;;;;;;9.07;8.27;;;39.10;34.90;;;;;;4937325;29;20339;-63
2021/09/07 12:21:15;;;;;;;9.17;8.57;;;40.10;34.20;;;;;;4937449;29;20437;-62
2021/09/07 12:23:44;;;;;;;8.70;8.00;;;38.60;35.10;;;;;;4941736;29;20427;-63
2021/09/07 12:26:10;;;;;;;9.17;8.37;;;38.20;35.40;;;;;;4956833;28;20842;-62
2021/09/07 12:28:36;;;;;;;10.07;8.80;;;37.50;35.90;;;;;;4956373;28;20471;-62
2021/09/07 12:31:14;;;;;;;8.83;8.23;;;37.40;36.60;;;;;;4956697;28;20499;-62
2021/09/07 12:33:54;;;;;;;8.33;7.73;;;38.10;35.70;;;;;;4953187;28;20420;-62
2021/09/07 12:36:23;;;;;;;9.03;8.33;;;38.90;35.30;;;;;;4956495;28;20516;-62